• Join FlightAware (Why Join?)
  • Login
  • US Flag 
10:52PM EST


 

Airport Tracker/Info


-or-


 

Live Flight TrackerFlight Track Log ✈ SWA1035 ✈ 17-May-2013 ✈ KABQ - KPDX

Flight Track Log - Related Links

Times and Time Zones

All times are in EDT time to prevent confusion due to time zone crossing. See the SWA1035 flight status page for this flight to view local times or setup timezone preferences in your user account.

Time Position Orientation Groundspeed Altitude Reporting Facility
EDT Latitude Longitude Course Direction KTS MPH feet Rate Location/Type
04:54PM 35.0117 -106.6586 249° West 174 200 6,900  Level Albuquerque Center
04:55PM 35.0569 -106.7214 311° West 272 313 8,500 1,980 Climbing Albuquerque Center
04:56PM 35.1378 -106.7447 347° North 295 339 11,000 3,240 Climbing Albuquerque Center
04:57PM 35.2403 -106.7850 342° North 324 373 15,200 3,420 Climbing Albuquerque Center
04:58PM 35.3247 -106.8214 341° North 325 374 18,100 2,700 Climbing Albuquerque Center
04:59PM 35.4164 -106.8550 343° North 337 388 20,800 2,160 Climbing Albuquerque Center
05:00PM 35.5189 -106.8761 350° North 369 425 22,600 1,380 Climbing Albuquerque Center
05:01PM 35.6350 -106.8931 353° North 410 472 23,700 1,680 Climbing Albuquerque Center
05:02PM 35.7628 -106.9136 353° North 440 506 26,100 2,160 Climbing Albuquerque Center
05:04PM 35.9014 -106.9364 352° North 448 516 28,200 1,680 Climbing Albuquerque Center
05:05PM 36.0119 -107.0211 328° Northwest 453 521 29,600 1,380 Climbing Albuquerque Center
05:06PM 36.1058 -107.1367 315° West 460 529 31,100 1,500 Climbing Albuquerque Center
05:07PM 36.1956 -107.2458 316° Northwest 470 541 32,800 1,860 Climbing Albuquerque Center
05:08PM 36.2992 -107.3719 316° Northwest 469 540 35,000 1,920 Climbing Albuquerque Center
05:09PM 36.3831 -107.4756 315° West 454 522 36,800 1,740 Climbing Albuquerque Center
05:09PM 36.4253 -107.5261 316° Northwest 450 518 37,600 780 Climbing Denver Center
05:10PM 36.5206 -107.6450 315° West 440 506 38,000 180 Climbing Denver Center
05:11PM 36.6047 -107.7475 316° Northwest 444 511 38,000  Level Denver Center
05:12PM 36.7022 -107.8669 316° Northwest 441 507 38,000  Level Denver Center
05:13PM 36.7850 -107.9703 315° West 441 507 38,000  Level Denver Center
05:14PM 36.8669 -108.0733 315° West 438 504 38,000  Level Denver Center
05:15PM 36.9622 -108.1925 315° West 437 503 38,000  Level Denver Center
05:16PM 37.0450 -108.2964 315° West 440 506 38,000  Level Denver Center
05:17PM 37.1408 -108.4172 315° West 439 505 38,000  Level Denver Center
05:18PM 37.2228 -108.5192 315° West 436 502 38,000  Level Denver Center
05:19PM 37.3178 -108.6389 315° West 435 501 38,000  Level Denver Center
05:20PM 37.3992 -108.7414 315° West 434 499 38,000  Level Denver Center
05:21PM 37.4936 -108.8617 315° West 433 498 38,000  Level Denver Center
05:23PM 37.5764 -108.9656 315° West 437 503 38,000  Level Denver Center
05:24PM 37.6708 -109.0883 314° West 438 504 38,000  Level Denver Center
05:25PM 37.7533 -109.1950 314° West 441 507 38,000  Level Denver Center
05:26PM 37.8497 -109.3194 314° West 443 510 38,000  Level Denver Center
05:27PM 37.9331 -109.4272 314° West 446 513 38,000  Level Denver Center
05:28PM 38.0311 -109.5561 314° West 453 521 38,000  Level Denver Center
05:29PM 38.1117 -109.6614 314° West 455 524 38,000  Level Denver Center
05:30PM 38.2094 -109.7881 315° West 451 519 38,000  Level Denver Center
05:31PM 38.2936 -109.8981 314° West 451 519 38,000  Level Denver Center
05:32PM 38.3911 -110.0297 313° West 455 524 38,000  Level Denver Center
05:33PM 38.4767 -110.1419 314° West 459 528 38,000  Level Denver Center
05:33PM 38.5333 -110.2172 314° West 456 525 38,000  Level Salt Lake Center
05:34PM 38.6172 -110.3297 314° West 456 525 38,000  Level Salt Lake Center
05:35PM 38.6572 -110.3825 314° West 453 521 38,000  Level Denver Center
05:35PM 38.7011 -110.4414 314° West 455 524 38,000  Level Salt Lake Center
05:36PM 38.7986 -110.5719 314° West 453 521 38,000  Level Salt Lake Center
05:38PM 38.8831 -110.6861 314° West 457 526 38,000  Level Salt Lake Center
05:39PM 38.9786 -110.8147 314° West 448 516 38,000  Level Salt Lake Center
05:40PM 39.0603 -110.9272 313° West 448 516 38,000  Level Salt Lake Center
05:41PM 39.1569 -111.0592 313° West 453 521 38,000  Level Salt Lake Center
05:42PM 39.2383 -111.1717 313° West 449 517 38,000  Level Salt Lake Center
05:43PM 39.3289 -111.2956 313° West 450 518 38,000  Level Salt Lake Center
05:44PM 39.4144 -111.4144 313° West 451 519 38,000  Level Salt Lake Center
05:45PM 39.5003 -111.5319 313° West 450 518 38,000  Level Salt Lake Center
05:46PM 39.5853 -111.6511 313° West 450 518 38,000  Level Salt Lake Center
05:47PM 39.6706 -111.7692 313° West 448 516 38,000  Level Salt Lake Center
05:48PM 39.7725 -111.9122 313° West 450 518 38,000  Level Salt Lake Center
05:49PM 39.8586 -112.0333 313° West 453 521 38,000  Level Salt Lake Center
05:50PM 39.9436 -112.1531 313° West 450 518 38,000  Level Salt Lake Center
05:51PM 40.0283 -112.2750 312° West 451 519 38,000  Level Salt Lake Center
05:52PM 40.1139 -112.3958 313° West 453 521 38,000  Level Salt Lake Center
05:53PM 40.1972 -112.5169 312° West 448 516 38,000  Level Salt Lake Center
05:54PM 40.2811 -112.6358 313° West 444 511 38,000 -12,420 Level Salt Lake Center
05:55PM 40.3833 -112.7828 312° West 451 519 12,400  Descending Salt Lake Center
05:57PM 40.5503 -113.0275 312° West 449 517 38,000 8,280 Climbing Salt Lake Center
05:58PM 40.6336 -113.1494 312° West 448 516 38,000 360 Level Salt Lake Center
05:59PM 40.7175 -113.2722 312° West 450 518 38,800 780 Climbing Salt Lake Center
06:00PM 40.8014 -113.3933 312° West 449 517 39,700 540 Climbing Salt Lake Center
06:01PM 40.8836 -113.5175 311° West 450 518 40,000 120 Climbing Salt Lake Center
06:02PM 40.9683 -113.6422 312° West 454 522 40,000  Level Salt Lake Center
06:03PM 41.0664 -113.7914 311° West 450 518 40,000  Level Salt Lake Center
06:04PM 41.1486 -113.9142 312° West 448 516 40,000  Level Salt Lake Center
06:05PM 41.2314 -114.0400 311° West 450 518 40,000  Level Salt Lake Center
06:06PM 41.3128 -114.1633 311° West 448 516 40,000  Level Salt Lake Center
06:07PM 41.3950 -114.2886 311° West 448 516 40,000  Level Salt Lake Center
06:08PM 41.4783 -114.4139 312° West 449 517 40,000  Level Salt Lake Center
06:09PM 41.5608 -114.5400 311° West 451 519 40,000  Level Salt Lake Center
06:10PM 41.6581 -114.6897 311° West 452 520 40,000  Level Salt Lake Center
06:12PM 41.7364 -114.8119 311° West 453 521 40,000  Level Salt Lake Center
06:13PM 41.8275 -114.9531 311° West 449 517 40,000  Level Salt Lake Center
06:14PM 41.9067 -115.0758 311° West 448 516 40,000  Level Salt Lake Center
06:15PM 41.9842 -115.1972 311° West 444 511 40,000  Level Salt Lake Center
06:16PM 42.0750 -115.3394 311° West 449 517 40,000  Level Salt Lake Center
06:17PM 42.1503 -115.4617 310° West 451 519 40,000  Level Salt Lake Center
06:18PM 42.2411 -115.6042 311° West 448 516 40,000  Level Salt Lake Center
06:19PM 42.3178 -115.7269 310° West 447 514 40,000  Level Salt Lake Center
06:20PM 42.4083 -115.8717 310° West 449 517 40,000  Level Salt Lake Center
06:21PM 42.4853 -115.9961 310° West 451 519 40,000  Level Salt Lake Center
06:22PM 42.5744 -116.1414 310° West 448 516 40,000  Level Salt Lake Center
06:23PM 42.6514 -116.2656 310° West 449 517 40,000  Level Salt Lake Center
06:24PM 42.7278 -116.3900 310° West 447 514 40,000  Level Salt Lake Center
06:25PM 42.8161 -116.5358 310° West 447 514 40,000  Level Salt Lake Center
06:26PM 42.8925 -116.6611 310° West 448 516 40,000  Level Salt Lake Center
06:27PM 42.9811 -116.8075 310° West 449 517 40,000  Level Salt Lake Center
06:28PM 43.0572 -116.9344 309° West 448 516 40,000  Level Salt Lake Center
06:29PM 43.1325 -117.0611 309° West 448 516 40,000  Level Salt Lake Center
06:30PM 43.2211 -117.2094 309° West 449 517 40,000  Level Salt Lake Center
06:31PM 43.2964 -117.3367 309° West 450 518 40,000  Level Salt Lake Center
06:32PM 43.3833 -117.4839 309° West 445 512 40,000  Level Salt Lake Center
06:33PM 43.4572 -117.6097 309° West 442 509 40,000  Level Salt Lake Center
06:34PM 43.5439 -117.7553 309° West 438 504 40,000  Level Salt Lake Center
06:35PM 43.6169 -117.8822 309° West 441 507 40,000  Level Salt Lake Center
06:36PM 43.6900 -118.0075 309° West 438 504 40,000  Level Salt Lake Center
06:37PM 43.7756 -118.1564 309° West 439 505 40,000  Level Salt Lake Center
06:38PM 43.8500 -118.2842 309° West 444 511 40,000  Level Salt Lake Center
06:39PM 43.9292 -118.4233 308° West 439 505 40,000  Level Salt Lake Center
06:40PM 44.0058 -118.5583 308° West 443 510 40,000  Level Salt Lake Center
06:41PM 44.0819 -118.6933 308° West 444 511 40,000  Level Salt Lake Center
06:42PM 44.1272 -118.7731 308° West 442 509 40,000  Level Seattle Center
06:43PM 44.2028 -118.9069 308° West 442 509 40,000  Level Seattle Center
06:44PM 44.2781 -119.0397 308° West 441 507 40,000  Level Seattle Center
06:45PM 44.3517 -119.1728 308° West 436 502 40,000  Level Seattle Center
06:46PM 44.4261 -119.3056 308° West 434 499 40,000  Level Seattle Center
06:47PM 44.5000 -119.4406 308° West 437 503 40,000  Level Seattle Center
06:48PM 44.5756 -119.5756 308° West 440 506 40,000  Level Seattle Center
06:49PM 44.6489 -119.7106 307° West 436 502 40,000  Level Seattle Center
06:50PM 44.7225 -119.8481 307° West 438 504 40,000  Level Seattle Center
06:51PM 44.7964 -119.9872 307° West 440 506 40,000 -120 Level Seattle Center
06:52PM 44.8706 -120.1281 307° West 439 505 39,800 -1,500 Descending Seattle Center
06:53PM 44.9442 -120.2681 307° West 437 503 37,000 -2,940 Descending Seattle Center
06:54PM 45.0167 -120.4069 306° West 436 502 33,900 -2,880 Descending Seattle Center
06:55PM 45.0894 -120.5456 307° West 437 503 31,300 -2,400 Descending Seattle Center
06:56PM 45.1597 -120.6797 307° West 429 494 29,100 -2,040 Descending Seattle Center
06:57PM 45.2272 -120.8094 306° West 414 476 27,200 -2,220 Descending Seattle Center
06:58PM 45.2925 -120.9356 306° West 403 464 24,600 -2,340 Descending Seattle Center
06:59PM 45.3556 -121.0597 306° West 392 451 22,500 -2,280 Descending Seattle Center
07:00PM 45.4250 -121.2042 304° West 375 432 20,000 -2,460 Descending Seattle Center
07:01PM 45.4436 -121.3428 281° West 363 418 17,600 -2,280 Descending Seattle Center
07:02PM 45.4600 -121.4583 281° West 347 399 15,900 -2,040 Descending Seattle Center
07:03PM 45.4775 -121.6025 280° West 339 390 13,700 -1,980 Descending Seattle Center
07:04PM 45.4928 -121.7394 279° West 333 383 11,600 -1,440 Descending Seattle Center
07:05PM 45.4972 -121.8414 274° West 298 343 11,000 -1,140 Descending Seattle Center
07:06PM 45.5022 -121.9689 273° West 275 316 9,400 -1,320 Descending Seattle Center
07:07PM 45.5044 -122.0711 272° West 268 308 8,100 -1,260 Descending Seattle Center
07:08PM 45.5061 -122.1772 271° West 260 299 6,900 -960 Descending Seattle Center
07:09PM 45.5106 -122.2706 274° West 251 289 6,200 -900 Descending Seattle Center
07:10PM 45.5108 -122.3481 270° West 190 219 5,100 -1,200 Descending Seattle Center
07:11PM 45.5231 -122.4078 286° West 144 166 4,000 -1,500 Descending Seattle Center
07:12PM 45.5400 -122.4594 295° West 135 155 2,100 -1,440 Descending Seattle Center
07:13PM 45.5572 -122.5017 300° West 123 142 1,100 -840 Descending Seattle Center
07:14PM 45.5744 -122.5442 300° West 123 142 500 -600 Descending Seattle Center
07:16PM 45.5833 -122.5833 282° West  Level FlightAware Approximate